Mohawk, Tennessee
Current Conditions -  °F | °C
As of 5:15 PM on Monday 20 Oct 2014 (Local Time) from KMOR Reporting Station
Broken Clouds Broken Clouds  
Wind Chill: 63°   Ceiling: 9000
Heat Index: 63°   Visibility: 10mi
Dew Point: 52°   Wind: 6mph
Humidity: 68%   Direction: 260°W
Pressure: 29.99"   Gusts: NA
Location:  36.2°N, 83.05°W
Report Text: KMOR 202115Z AUTO 26005KT 10SM BKN090 17/11 A2999 RMK
Loading
Personal Weather Stations






























Interactive Weather Map New forecast layout! Learn more

10-Day Weather Forecast

Advertisements
Track Severe Weather on mobile